Terminal Aerodrome Forecast
Issued by NWS

Home | Current Version | Previous Version | Text Only | Print | Product List | Glossary Off
Versions: 1 2 3 4 5 6 7 8 9 10 11 12 13 14 15 16 17 18

675
FTUS43 KBIS 201128
TAFJMS
TAF
KJMS 201128Z 2012/2112 00000KT P6SM OVC100
     FM202000 28006KT P6SM BKN090
     FM202300 31007KT P6SM BKN100
     FM210200 33008KT P6SM SCT140
     FM210700 36010KT P6SM SCT200=

USA.gov is the U.S. government's official web portal to all federal, state and local government web resources and services.